createdAt,value
2023-04-09T00:02:01.506Z,39.08
2023-04-09T00:04:27.994Z,32.20
2023-04-09T00:06:54.408Z,27.52
2023-04-09T00:09:20.897Z,23.40
2023-04-09T00:11:47.300Z,22.45
2023-04-09T00:14:13.696Z,24.90
2023-04-09T00:16:40.806Z,26.63
2023-04-09T00:19:07.675Z,25.75
2023-04-09T00:21:34.094Z,28.30
2023-04-09T00:24:00.660Z,30.20
2023-04-09T00:26:27.333Z,24.73
2023-04-09T00:28:53.874Z,26.77
2023-04-09T00:31:21.004Z,29.00
2023-04-09T00:33:47.529Z,27.25
2023-04-09T00:36:14.054Z,36.78
2023-04-09T00:38:40.824Z,28.45
2023-04-09T00:41:07.351Z,46.05
2023-04-09T00:43:33.804Z,38.33
2023-04-09T00:46:00.885Z,33.35
2023-04-09T00:48:27.744Z,27.60
2023-04-09T00:50:54.220Z,24.83
2023-04-09T00:53:20.673Z,26.98
2023-04-09T00:55:47.214Z,24.42
2023-04-09T00:58:14.482Z,26.40
2023-04-09T01:00:40.954Z,25.88
2023-04-09T01:03:08.396Z,30.40
2023-04-09T01:05:54.962Z,29.55
2023-04-09T01:08:55.983Z,29.98
2023-04-09T01:11:36.003Z,28.95
2023-04-09T01:14:14.609Z,25.52
2023-04-09T01:16:44.720Z,25.13
2023-04-09T01:19:34.510Z,24.30
2023-04-09T01:22:02.750Z,25.50
2023-04-09T01:25:09.894Z,23.75
2023-04-09T01:28:24.029Z,25.05
2023-04-09T01:30:57.394Z,30.30
2023-04-09T01:33:27.363Z,30.52
2023-04-09T01:35:54.832Z,27.30
2023-04-09T01:38:22.208Z,28.95
2023-04-09T01:40:52.020Z,26.20
2023-04-09T01:43:20.059Z,26.00
2023-04-09T01:45:47.795Z,27.90
2023-04-09T01:48:16.052Z,34.05
2023-04-09T01:50:43.688Z,46.72
2023-04-09T01:53:10.446Z,47.53
2023-04-09T01:55:36.856Z,47.75
2023-04-09T01:58:03.452Z,42.03
2023-04-09T02:00:38.325Z,36.63
2023-04-09T02:03:13.382Z,30.23
2023-04-09T02:05:46.491Z,37.42
2023-04-09T02:08:20.537Z,37.60
2023-04-09T02:10:56.609Z,45.78
2023-04-09T02:13:24.355Z,59.33
2023-04-09T02:15:51.692Z,55.33
2023-04-09T02:18:29.139Z,52.90
2023-04-09T02:20:57.296Z,53.67
2023-04-09T02:23:24.555Z,55.75
2023-04-09T02:25:52.537Z,48.85
2023-04-09T02:28:19.223Z,39.80
2023-04-09T02:30:45.686Z,31.13
2023-04-09T02:33:12.120Z,34.10
2023-04-09T02:35:38.660Z,46.33
2023-04-09T02:38:05.219Z,39.15
2023-04-09T02:40:31.725Z,31.30
2023-04-09T02:42:58.521Z,34.45
2023-04-09T02:45:25.164Z,29.27
2023-04-09T02:47:51.656Z,43.92
2023-04-09T02:50:18.141Z,50.75
2023-04-09T02:52:46.568Z,43.72
2023-04-09T02:55:13.952Z,45.17
2023-04-09T02:57:40.928Z,47.22
2023-04-09T03:00:08.260Z,45.97
2023-04-09T03:02:35.288Z,40.20
2023-04-09T03:05:02.311Z,39.63
2023-04-09T03:07:28.760Z,38.80
2023-04-09T03:09:55.225Z,46.78
2023-04-09T03:12:21.634Z,48.97
2023-04-09T03:14:48.027Z,44.10
2023-04-09T03:17:14.412Z,47.25
2023-04-09T03:19:40.908Z,49.55
2023-04-09T03:22:07.427Z,42.08
2023-04-09T03:24:33.940Z,31.48
2023-04-09T03:27:00.354Z,27.25
2023-04-09T03:29:26.775Z,26.25
2023-04-09T03:31:53.190Z,28.60
2023-04-09T03:34:19.689Z,37.47
2023-04-09T03:36:46.313Z,31.98
2023-04-09T03:39:12.744Z,37.30
2023-04-09T03:41:39.335Z,37.05
2023-04-09T03:44:06.065Z,27.40
2023-04-09T03:46:32.564Z,23.85
2023-04-09T03:48:59.055Z,28.88
2023-04-09T03:51:25.505Z,21.20
2023-04-09T03:53:51.946Z,29.70
2023-04-09T03:56:18.408Z,27.13
2023-04-09T03:58:44.881Z,24.35
2023-04-09T04:01:11.305Z,25.75
2023-04-09T04:03:37.865Z,27.80
2023-04-09T04:06:04.440Z,26.05
2023-04-09T04:08:30.861Z,35.15
2023-04-09T04:11:03.616Z,25.13
2023-04-09T04:13:30.242Z,27.88
2023-04-09T04:15:56.792Z,32.33
2023-04-09T04:18:23.242Z,28.40
2023-04-09T04:20:49.661Z,27.55
2023-04-09T04:23:16.103Z,29.45
2023-04-09T04:25:42.656Z,26.92
2023-04-09T04:28:09.207Z,25.33
2023-04-09T04:30:35.734Z,27.80
2023-04-09T04:33:02.225Z,34.00
2023-04-09T04:35:28.697Z,28.17
2023-04-09T04:37:55.150Z,26.38
2023-04-09T04:40:21.572Z,34.67
2023-04-09T04:42:47.996Z,24.45
2023-04-09T04:45:14.500Z,26.38
2023-04-09T04:47:40.984Z,25.80
2023-04-09T04:50:08.197Z,24.60
2023-04-09T04:52:34.641Z,25.95
2023-04-09T04:55:01.066Z,25.77
2023-04-09T04:57:27.488Z,24.63
2023-04-09T04:59:53.992Z,24.90
2023-04-09T05:02:20.708Z,20.67
2023-04-09T05:04:47.189Z,29.60
2023-04-09T05:07:13.632Z,25.45
2023-04-09T05:09:40.151Z,29.58
2023-04-09T05:12:06.596Z,29.02
2023-04-09T05:14:33.066Z,36.25
2023-04-09T05:16:59.602Z,22.05
2023-04-09T05:19:26.122Z,23.73
2023-04-09T05:21:52.644Z,24.75
2023-04-09T05:24:19.076Z,31.73
2023-04-09T05:26:45.526Z,25.42
2023-04-09T05:29:11.978Z,24.98
2023-04-09T05:31:40.149Z,35.10
2023-04-09T05:34:06.639Z,40.17
2023-04-09T05:36:33.249Z,33.80
2023-04-09T05:38:59.730Z,24.80
2023-04-09T05:41:26.156Z,28.33
2023-04-09T05:43:52.892Z,23.80
2023-04-09T05:46:19.680Z,24.13
2023-04-09T05:48:46.866Z,20.63
2023-04-09T05:51:13.372Z,30.10
2023-04-09T05:53:39.832Z,25.88
2023-04-09T05:56:16.167Z,26.75
2023-04-09T05:58:43.016Z,22.85
2023-04-09T06:01:10.193Z,21.88
2023-04-09T06:03:36.917Z,21.90
2023-04-09T06:06:03.680Z,21.13
2023-04-09T06:08:30.159Z,20.13
2023-04-09T06:10:56.743Z,22.40
2023-04-09T06:13:23.582Z,23.55
2023-04-09T06:15:50.369Z,20.50
2023-04-09T06:18:17.137Z,19.00
2023-04-09T06:20:43.599Z,22.65
2023-04-09T06:23:10.207Z,25.95
2023-04-09T06:25:36.719Z,23.23
2023-04-09T06:28:05.268Z,21.08
2023-04-09T06:30:32.014Z,22.30
2023-04-09T06:32:58.527Z,24.08
2023-04-09T06:35:25.002Z,21.45
2023-04-09T06:37:51.499Z,22.55
2023-04-09T06:40:19.224Z,22.63
2023-04-09T06:42:47.128Z,21.30
2023-04-09T06:45:13.734Z,23.02
2023-04-09T06:47:40.172Z,30.98
2023-04-09T06:50:07.256Z,24.23
2023-04-09T06:52:33.736Z,29.90
2023-04-09T06:55:00.313Z,29.27
2023-04-09T06:57:27.224Z,28.33
2023-04-09T06:59:53.683Z,30.35
2023-04-09T07:02:20.556Z,24.65
2023-04-09T07:04:47.715Z,23.60
2023-04-09T07:07:14.446Z,26.73
2023-04-09T07:09:40.941Z,22.60
2023-04-09T07:12:07.348Z,20.98
2023-04-09T07:14:33.812Z,25.08
2023-04-09T07:17:00.284Z,23.05
2023-04-09T07:19:26.727Z,21.70
2023-04-09T07:21:53.147Z,23.83
2023-04-09T07:24:19.610Z,23.85
2023-04-09T07:26:46.098Z,20.30
2023-04-09T07:29:12.523Z,19.38
2023-04-09T07:31:39.396Z,19.55
2023-04-09T07:34:06.136Z,20.67
2023-04-09T07:36:32.814Z,24.95
2023-04-09T07:38:59.271Z,26.65
2023-04-09T07:41:25.964Z,26.27
2023-04-09T07:43:52.552Z,23.85
2023-04-09T07:46:21.313Z,19.60
2023-04-09T07:48:49.421Z,20.88
2023-04-09T07:51:17.051Z,18.48
2023-04-09T07:53:43.504Z,18.48
2023-04-09T07:56:10.395Z,19.92
2023-04-09T07:58:38.102Z,19.05
2023-04-09T08:01:04.879Z,15.60
2023-04-09T08:03:31.546Z,18.52
2023-04-09T08:05:58.242Z,19.70
2023-04-09T08:08:25.033Z,16.33
2023-04-09T08:10:51.575Z,18.55
2023-04-09T08:13:18.032Z,16.83
2023-04-09T08:15:44.434Z,19.10
2023-04-09T08:18:10.851Z,15.82
2023-04-09T08:20:37.823Z,17.27
2023-04-09T08:23:04.263Z,15.82
2023-04-09T08:25:30.902Z,17.75
2023-04-09T08:27:58.121Z,15.07
2023-04-09T08:30:24.638Z,15.23
2023-04-09T08:32:51.223Z,16.70
2023-04-09T08:35:17.722Z,14.23
2023-04-09T08:37:44.244Z,15.00
2023-04-09T08:40:11.807Z,18.77
2023-04-09T08:42:45.944Z,17.85
2023-04-09T08:45:13.995Z,13.95
2023-04-09T08:47:42.111Z,15.63
2023-04-09T08:50:09.010Z,14.20
2023-04-09T08:52:36.782Z,15.20
2023-04-09T08:55:03.450Z,12.10
2023-04-09T08:57:29.950Z,16.40
2023-04-09T08:59:56.429Z,16.73
2023-04-09T09:02:24.179Z,17.23
2023-04-09T09:04:50.924Z,13.95
2023-04-09T09:07:17.752Z,19.65
2023-04-09T09:09:54.554Z,13.65
2023-04-09T09:12:41.555Z,14.02
2023-04-09T09:15:30.031Z,11.63
2023-04-09T09:17:58.413Z,16.02
2023-04-09T09:20:26.569Z,13.63
2023-04-09T09:22:55.646Z,14.25
2023-04-09T09:25:26.393Z,10.00
2023-04-09T09:27:53.968Z,12.45
2023-04-09T09:30:23.153Z,15.23
2023-04-09T09:33:10.791Z,13.85
2023-04-09T09:35:50.830Z,12.73
2023-04-09T09:38:18.248Z,14.27
2023-04-09T09:40:44.967Z,10.75
2023-04-09T09:43:14.461Z,9.30
2023-04-09T09:45:43.108Z,9.90
2023-04-09T09:48:12.059Z,12.35
2023-04-09T09:50:41.765Z,10.13
2023-04-09T09:53:10.038Z,9.43
2023-04-09T09:55:41.723Z,12.70
2023-04-09T09:58:23.528Z,10.10
2023-04-09T10:00:52.211Z,9.20
2023-04-09T10:03:25.879Z,9.60
2023-04-09T10:05:53.847Z,10.77
2023-04-09T10:08:22.289Z,7.95
2023-04-09T10:10:50.183Z,8.40
2023-04-09T10:13:21.819Z,8.48
2023-04-09T10:15:48.913Z,8.27
2023-04-09T10:18:17.875Z,9.68
2023-04-09T10:20:58.642Z,9.25
2023-04-09T10:23:36.254Z,7.68
2023-04-09T10:26:03.037Z,7.95
2023-04-09T10:28:30.029Z,7.55
2023-04-09T10:30:57.553Z,8.32
2023-04-09T10:33:27.076Z,10.57
2023-04-09T10:35:55.327Z,6.72
2023-04-09T10:38:39.050Z,7.25
2023-04-09T10:41:16.539Z,7.85
2023-04-09T10:43:43.401Z,9.55
2023-04-09T10:46:30.091Z,8.77
2023-04-09T10:49:10.384Z,9.80
2023-04-09T10:51:40.290Z,9.32
2023-04-09T10:54:27.386Z,8.20
2023-04-09T10:57:09.221Z,9.77
2023-04-09T10:59:46.083Z,7.20
2023-04-09T11:02:21.577Z,10.55
2023-04-09T11:04:54.674Z,8.52
2023-04-09T11:07:25.044Z,9.27
2023-04-09T11:09:51.477Z,8.98
2023-04-09T11:12:17.939Z,8.25
2023-04-09T11:14:44.370Z,8.40
2023-04-09T11:17:10.858Z,9.90
2023-04-09T11:19:37.391Z,9.13
2023-04-09T11:22:06.568Z,10.85
2023-04-09T11:24:42.570Z,9.60
2023-04-09T11:27:09.163Z,6.65
2023-04-09T11:29:36.699Z,8.82
2023-04-09T11:32:05.191Z,11.35
2023-04-09T11:34:32.409Z,8.38
2023-04-09T11:36:59.866Z,8.10
2023-04-09T11:39:26.448Z,8.45
2023-04-09T11:41:53.297Z,9.13
2023-04-09T11:44:21.678Z,7.95
2023-04-09T11:46:49.177Z,9.40
2023-04-09T11:49:16.436Z,9.25
2023-04-09T11:51:43.135Z,8.25
2023-04-09T11:54:12.216Z,9.70
2023-04-09T11:56:38.660Z,9.23
2023-04-09T11:59:05.542Z,7.90
2023-04-09T12:01:33.372Z,8.90
2023-04-09T12:04:01.278Z,8.55
2023-04-09T12:06:28.523Z,9.02
2023-04-09T12:08:58.532Z,9.38
2023-04-09T12:11:32.508Z,10.20
2023-04-09T12:14:01.202Z,8.93
2023-04-09T12:16:34.262Z,9.65
2023-04-09T12:19:07.951Z,8.27
2023-04-09T12:21:55.825Z,8.68
2023-04-09T12:24:26.079Z,10.20
2023-04-09T12:26:52.718Z,10.02
2023-04-09T12:29:21.181Z,9.77
2023-04-09T12:31:47.960Z,10.00
2023-04-09T12:34:14.488Z,8.95
2023-04-09T12:36:41.850Z,9.02
2023-04-09T12:39:11.114Z,10.68
2023-04-09T12:41:37.657Z,9.52
2023-04-09T12:44:05.083Z,8.90
2023-04-09T12:46:32.429Z,7.57
2023-04-09T12:48:59.145Z,9.13
2023-04-09T12:51:25.820Z,10.05
2023-04-09T12:53:52.548Z,10.25
2023-04-09T12:56:19.270Z,10.40
2023-04-09T12:58:45.697Z,10.35
2023-04-09T13:01:12.185Z,16.45
2023-04-09T13:03:41.307Z,9.88
2023-04-09T13:06:08.745Z,10.75
2023-04-09T13:08:35.222Z,11.85
2023-04-09T13:11:01.862Z,9.32
2023-04-09T13:13:28.685Z,12.70
2023-04-09T13:15:55.180Z,10.00
2023-04-09T13:18:21.593Z,9.70
2023-04-09T13:20:48.036Z,9.50
2023-04-09T13:23:14.476Z,9.32
2023-04-09T13:25:40.926Z,8.55
2023-04-09T13:28:07.401Z,8.98
2023-04-09T13:30:33.986Z,9.27
2023-04-09T13:33:00.715Z,9.07
2023-04-09T13:35:27.246Z,9.77
2023-04-09T13:37:53.819Z,8.05
2023-04-09T13:40:20.241Z,12.98
2023-04-09T13:42:46.782Z,8.05
2023-04-09T13:45:13.295Z,8.25
2023-04-09T13:47:39.728Z,9.52
2023-04-09T13:50:07.435Z,8.48
2023-04-09T13:52:33.885Z,8.20
2023-04-09T13:55:00.584Z,8.63
2023-04-09T13:57:27.355Z,9.27
2023-04-09T13:59:53.788Z,8.68
2023-04-09T14:02:20.658Z,7.60
2023-04-09T14:04:47.278Z,8.63
2023-04-09T14:07:13.778Z,9.25
2023-04-09T14:09:40.534Z,10.48
2023-04-09T14:12:07.019Z,8.02
2023-04-09T14:14:33.465Z,9.60
2023-04-09T14:16:59.949Z,7.53
2023-04-09T14:19:26.364Z,9.48
2023-04-09T14:21:53.867Z,8.73
2023-04-09T14:24:22.960Z,9.40
2023-04-09T14:26:51.431Z,9.48
2023-04-09T14:29:17.870Z,8.70
2023-04-09T14:31:44.411Z,9.20
2023-04-09T14:34:10.955Z,9.18
2023-04-09T14:36:37.451Z,10.52
2023-04-09T14:39:03.964Z,8.63
2023-04-09T14:41:30.443Z,8.10
2023-04-09T14:43:56.901Z,7.82
2023-04-09T14:46:23.392Z,9.27
2023-04-09T14:48:49.981Z,9.45
2023-04-09T14:51:16.608Z,8.02
2023-04-09T14:53:43.084Z,10.20
2023-04-09T14:56:09.518Z,9.38
2023-04-09T14:58:36.312Z,10.43
2023-04-09T15:01:04.278Z,19.13
2023-04-09T15:03:30.889Z,34.42
2023-04-09T15:05:59.320Z,15.82
2023-04-09T15:08:25.907Z,8.23
2023-04-09T15:10:52.380Z,11.18
2023-04-09T15:13:18.847Z,16.00
2023-04-09T15:15:45.424Z,9.43
2023-04-09T15:18:11.930Z,18.98
2023-04-09T15:20:39.835Z,17.42
2023-04-09T15:23:06.283Z,51.47
2023-04-09T15:25:32.825Z,30.80
2023-04-09T15:27:59.269Z,18.90
2023-04-09T15:30:26.496Z,16.95
2023-04-09T15:32:53.076Z,16.80
2023-04-09T15:35:24.897Z,18.52
2023-04-09T15:37:51.691Z,13.38
2023-04-09T15:40:18.687Z,22.13
2023-04-09T15:42:45.234Z,20.30
2023-04-09T15:45:14.662Z,17.63
2023-04-09T15:47:41.143Z,29.55
2023-04-09T15:50:08.180Z,32.13
2023-04-09T15:52:34.643Z,19.73
2023-04-09T15:55:01.722Z,13.73
2023-04-09T15:57:28.791Z,11.35
2023-04-09T15:59:55.358Z,23.90
2023-04-09T16:02:23.438Z,15.75
2023-04-09T16:04:51.283Z,14.90
2023-04-09T16:07:17.773Z,11.48
2023-04-09T16:09:46.199Z,12.93
2023-04-09T16:12:12.844Z,55.75
2023-04-09T16:14:40.320Z,9.38
2023-04-09T16:17:07.042Z,17.35
2023-04-09T16:19:33.595Z,26.02
2023-04-09T16:22:00.052Z,46.05
2023-04-09T16:24:27.104Z,11.35
2023-04-09T16:26:53.580Z,12.23
2023-04-09T16:29:20.284Z,14.88
2023-04-09T16:31:46.799Z,21.42
2023-04-09T16:34:13.283Z,21.70
2023-04-09T16:36:41.525Z,8.20
2023-04-09T16:39:07.965Z,13.85
2023-04-09T16:41:36.814Z,26.17
2023-04-09T16:44:03.847Z,16.65
2023-04-09T16:46:30.705Z,18.75
2023-04-09T16:48:57.370Z,19.80
2023-04-09T16:51:23.988Z,23.92
2023-04-09T16:53:50.520Z,15.32
2023-04-09T16:56:17.005Z,9.30
2023-04-09T16:58:43.878Z,6.43
2023-04-09T17:01:10.670Z,8.77
2023-04-09T17:03:37.508Z,10.48
2023-04-09T17:06:04.738Z,11.68
2023-04-09T17:08:31.267Z,18.67
2023-04-09T17:11:02.398Z,17.40
2023-04-09T17:13:31.564Z,14.15
2023-04-09T17:15:58.703Z,17.65
2023-04-09T17:18:25.222Z,9.90
2023-04-09T17:20:52.127Z,14.90
2023-04-09T17:23:18.964Z,6.93
2023-04-09T17:25:46.120Z,9.05
2023-04-09T17:28:12.898Z,7.93
2023-04-09T17:30:39.357Z,10.43
2023-04-09T17:33:05.968Z,16.10
2023-04-09T17:35:33.355Z,18.17
2023-04-09T17:38:01.213Z,10.50
2023-04-09T17:40:28.227Z,8.73
2023-04-09T17:42:55.559Z,13.57
2023-04-09T17:45:22.124Z,18.17
2023-04-09T17:47:51.705Z,21.02
2023-04-09T17:50:18.396Z,8.32
2023-04-09T17:52:45.162Z,9.32
2023-04-09T17:55:12.967Z,13.02
2023-04-09T17:57:40.089Z,12.40
2023-04-09T18:00:08.218Z,18.25
2023-04-09T18:02:35.554Z,9.15
2023-04-09T18:05:06.274Z,11.27
2023-04-09T18:10:03.367Z,30.67
2023-04-09T18:12:30.140Z,8.77
2023-04-09T18:14:56.712Z,10.35
2023-04-09T18:17:23.564Z,18.17
2023-04-09T18:19:50.397Z,8.63
2023-04-09T18:22:16.895Z,20.08
2023-04-09T18:24:43.353Z,15.20
2023-04-09T18:27:09.985Z,13.05
2023-04-09T18:29:36.712Z,24.45
2023-04-09T18:32:03.540Z,23.27
2023-04-09T18:34:30.079Z,20.08
2023-04-09T18:36:57.424Z,12.05
2023-04-09T18:39:24.393Z,21.92
2023-04-09T18:41:51.241Z,12.77
2023-04-09T18:44:17.799Z,33.15
2023-04-09T18:46:44.464Z,26.65
2023-04-09T18:49:11.172Z,9.85
2023-04-09T18:51:37.703Z,12.35
2023-04-09T18:54:04.930Z,11.98
2023-04-09T18:56:37.377Z,11.15
2023-04-09T18:59:03.845Z,22.85
2023-04-09T19:01:30.726Z,11.32
2023-04-09T19:03:57.353Z,10.27
2023-04-09T19:06:25.468Z,9.05
2023-04-09T19:08:57.873Z,12.10
2023-04-09T19:11:25.925Z,11.93
2023-04-09T19:13:52.567Z,19.15
2023-04-09T19:16:20.287Z,32.58
2023-04-09T19:18:47.051Z,11.75
2023-04-09T19:21:13.922Z,27.23
2023-04-09T19:23:40.398Z,21.27
2023-04-09T19:26:15.483Z,10.23
2023-04-09T19:28:41.921Z,14.10
2023-04-09T19:31:08.511Z,29.73
2023-04-09T19:33:35.372Z,10.23
2023-04-09T19:36:01.846Z,10.95
2023-04-09T19:38:28.267Z,26.58
2023-04-09T19:40:54.707Z,47.33
2023-04-09T19:43:21.147Z,12.13
2023-04-09T19:45:47.578Z,13.38
2023-04-09T19:48:14.176Z,10.40
2023-04-09T19:50:41.181Z,12.10
2023-04-09T19:53:07.749Z,15.20
2023-04-09T19:55:34.944Z,11.80
2023-04-09T19:58:01.857Z,16.90
2023-04-09T20:00:28.888Z,24.67
2023-04-09T20:02:55.898Z,19.75
2023-04-09T20:05:22.921Z,12.63
2023-04-09T20:07:50.578Z,15.90
2023-04-09T20:10:17.227Z,10.80
2023-04-09T20:12:47.413Z,12.30
2023-04-09T20:15:14.281Z,13.20
2023-04-09T20:17:41.840Z,13.90
2023-04-09T20:20:08.797Z,14.57
2023-04-09T20:22:35.578Z,11.13
2023-04-09T20:25:02.127Z,7.85
2023-04-09T20:27:28.671Z,15.10
2023-04-09T20:29:55.332Z,8.77
2023-04-09T20:32:22.587Z,12.80
2023-04-09T20:34:49.546Z,10.90
2023-04-09T20:37:16.198Z,8.57
2023-04-09T20:39:42.710Z,9.95
2023-04-09T20:42:09.204Z,9.88
2023-04-09T20:44:35.696Z,10.27
2023-04-09T20:47:02.205Z,13.88
2023-04-09T20:49:28.930Z,12.80
2023-04-09T20:51:55.709Z,13.43
2023-04-09T20:54:23.142Z,13.52
2023-04-09T20:56:50.022Z,10.60
2023-04-09T20:59:17.156Z,10.13
2023-04-09T21:01:44.130Z,6.97
2023-04-09T21:04:11.022Z,6.72
2023-04-09T21:06:37.542Z,9.38
2023-04-09T21:09:04.141Z,9.10
2023-04-09T21:11:30.790Z,8.13
2023-04-09T21:13:57.803Z,6.88
2023-04-09T21:16:26.071Z,8.95
2023-04-09T21:18:53.010Z,9.40
2023-04-09T21:21:19.705Z,9.13
2023-04-09T21:23:46.174Z,11.27
2023-04-09T21:26:13.165Z,9.20
2023-04-09T21:28:39.593Z,8.25
2023-04-09T21:31:06.256Z,10.30
2023-04-09T21:33:32.793Z,8.45
2023-04-09T21:35:59.314Z,9.05
2023-04-09T21:38:25.995Z,9.80
2023-04-09T21:40:52.472Z,11.57
2023-04-09T21:43:18.904Z,11.07
2023-04-09T21:45:45.445Z,8.73
2023-04-09T21:48:12.359Z,9.88
2023-04-09T21:50:38.799Z,10.32
2023-04-09T21:53:05.583Z,8.82
2023-04-09T21:55:32.083Z,9.75
2023-04-09T21:57:58.552Z,9.38
2023-04-09T22:00:24.957Z,7.75
2023-04-09T22:02:51.690Z,6.47
2023-04-09T22:05:18.367Z,7.15
2023-04-09T22:07:45.165Z,6.55
2023-04-09T22:10:11.629Z,7.53
2023-04-09T22:12:38.095Z,6.22
2023-04-09T22:15:05.761Z,6.50
2023-04-09T22:17:32.288Z,6.93
2023-04-09T22:19:58.734Z,7.05
2023-04-09T22:22:25.389Z,6.82
2023-04-09T22:24:51.972Z,6.70
2023-04-09T22:27:18.491Z,7.70
2023-04-09T22:29:44.943Z,8.77
2023-04-09T22:32:11.373Z,5.85
2023-04-09T22:34:37.862Z,8.13
2023-04-09T22:37:04.288Z,7.35
2023-04-09T22:39:31.084Z,6.28
2023-04-09T22:41:58.413Z,7.05
2023-04-09T22:44:25.628Z,17.83
2023-04-09T22:46:52.259Z,10.40
2023-04-09T22:49:18.792Z,9.38
2023-04-09T22:51:46.297Z,10.00
2023-04-09T22:54:12.759Z,7.57
2023-04-09T22:56:39.646Z,12.43
2023-04-09T22:59:06.303Z,23.60
2023-04-09T23:01:32.874Z,13.55
2023-04-09T23:03:59.317Z,10.68
2023-04-09T23:06:25.795Z,9.63
2023-04-09T23:08:52.454Z,7.40
2023-04-09T23:11:19.269Z,10.02
2023-04-09T23:13:45.825Z,23.45
2023-04-09T23:16:13.113Z,13.23
2023-04-09T23:18:40.420Z,10.90
2023-04-09T23:21:08.402Z,10.80
2023-04-09T23:23:36.038Z,13.80
2023-04-09T23:26:03.215Z,20.00
2023-04-09T23:28:30.203Z,16.58
2023-04-09T23:30:56.834Z,12.00
2023-04-09T23:33:23.746Z,11.23
2023-04-09T23:35:50.778Z,8.75
2023-04-09T23:38:17.287Z,15.05
2023-04-09T23:40:43.705Z,9.60
2023-04-09T23:43:10.225Z,10.60
2023-04-09T23:45:36.828Z,11.95
2023-04-09T23:48:05.069Z,8.57
2023-04-09T23:50:31.626Z,12.02
2023-04-09T23:53:00.898Z,12.15
2023-04-09T23:55:27.841Z,11.50
2023-04-09T23:57:54.367Z,13.35
